createdAt,value
2019-05-16T00:00:29.449Z,5.23
2019-05-16T00:02:59.631Z,4.73
2019-05-16T00:05:29.164Z,5.07
2019-05-16T00:07:59.579Z,4.10
2019-05-16T00:10:28.459Z,6.83
2019-05-16T00:12:59.535Z,9.30
2019-05-16T00:15:29.409Z,6.17
2019-05-16T00:18:00.286Z,5.40
2019-05-16T00:20:29.849Z,8.57
2019-05-16T00:22:59.087Z,3.17
2019-05-16T00:25:28.994Z,4.60
2019-05-16T00:27:58.881Z,4.83
2019-05-16T00:30:39.033Z,3.80
2019-05-16T00:33:08.387Z,3.27
2019-05-16T00:35:38.838Z,3.07
2019-05-16T00:38:08.933Z,2.60
2019-05-16T00:40:38.231Z,3.23
2019-05-16T00:43:08.158Z,4.57
2019-05-16T00:45:48.934Z,3.13
2019-05-16T00:48:18.545Z,5.23
2019-05-16T00:50:48.174Z,3.37
2019-05-16T00:53:18.176Z,4.23
2019-05-16T00:55:48.130Z,5.77
2019-05-16T00:58:19.006Z,3.10
2019-05-16T01:00:50.021Z,5.67
2019-05-16T01:03:20.135Z,2.90
2019-05-16T01:05:49.670Z,3.63
2019-05-16T01:08:20.188Z,4.63
2019-05-16T01:10:59.290Z,3.77
2019-05-16T01:13:28.843Z,4.77
2019-05-16T01:15:58.392Z,6.67
2019-05-16T01:18:28.784Z,5.33
2019-05-16T01:20:58.687Z,4.77
2019-05-16T01:23:28.619Z,6.50
2019-05-16T01:25:58.830Z,3.40
2019-05-16T01:28:28.673Z,3.93
2019-05-16T01:30:58.535Z,5.37
2019-05-16T01:33:28.434Z,4.37
2019-05-16T01:35:58.519Z,4.67
2019-05-16T01:38:28.502Z,6.07
2019-05-16T01:40:58.582Z,5.17
2019-05-16T01:43:28.525Z,4.50
2019-05-16T01:45:58.812Z,6.17
2019-05-16T01:48:29.377Z,6.00
2019-05-16T01:51:07.744Z,4.40
2019-05-16T01:53:39.405Z,3.87
2019-05-16T01:56:15.080Z,9.27
2019-05-16T01:58:51.457Z,8.40
2019-05-16T02:01:28.930Z,6.97
2019-05-16T02:03:58.830Z,5.80
2019-05-16T02:06:48.410Z,13.87
2019-05-16T02:09:11.663Z,9.43
2019-05-16T02:11:40.158Z,8.13
2019-05-16T02:14:09.698Z,4.97
2019-05-16T02:16:39.301Z,4.97
2019-05-16T02:19:18.650Z,7.47
2019-05-16T02:21:56.283Z,11.67
2019-05-16T02:24:28.358Z,14.57
2019-05-16T02:26:58.964Z,11.07
2019-05-16T02:29:29.845Z,7.17
2019-05-16T02:32:07.627Z,5.33
2019-05-16T02:34:37.189Z,8.43
2019-05-16T02:37:24.019Z,7.67
2019-05-16T02:39:44.906Z,4.20
2019-05-16T02:42:14.536Z,6.43
2019-05-16T02:44:45.110Z,5.50
2019-05-16T02:47:21.070Z,5.77
2019-05-16T02:50:05.168Z,9.20
2019-05-16T02:52:34.055Z,6.47
2019-05-16T02:55:11.830Z,5.93
2019-05-16T02:57:41.821Z,5.07
2019-05-16T03:00:12.541Z,7.63
2019-05-16T03:02:42.100Z,6.47
2019-05-16T03:05:20.846Z,7.37
2019-05-16T03:07:52.188Z,7.77
2019-05-16T03:10:21.209Z,4.77
2019-05-16T03:12:52.532Z,6.30
2019-05-16T03:15:22.094Z,7.23
2019-05-16T03:17:52.474Z,6.10
2019-05-16T03:20:22.463Z,9.47
2019-05-16T03:22:53.144Z,7.87
2019-05-16T03:25:22.698Z,7.43
2019-05-16T03:27:52.263Z,7.97
2019-05-16T03:30:23.661Z,7.67
2019-05-16T03:36:34.560Z,5.30
2019-05-16T03:39:03.014Z,6.63
2019-05-16T03:41:41.461Z,7.40
2019-05-16T03:44:11.393Z,9.93
2019-05-16T03:46:53.052Z,8.97
2019-05-16T03:49:21.937Z,6.70
2019-05-16T03:51:51.514Z,10.97
2019-05-16T03:54:21.292Z,9.17
2019-05-16T03:57:00.469Z,8.13
2019-05-16T03:59:31.500Z,9.00
2019-05-16T04:02:01.682Z,8.60
2019-05-16T04:04:31.318Z,6.73
2019-05-16T04:07:02.137Z,9.37
2019-05-16T04:09:32.451Z,10.03
2019-05-16T04:12:02.137Z,10.70
2019-05-16T04:14:31.137Z,6.40
2019-05-16T04:17:01.555Z,7.40
2019-05-16T04:19:31.373Z,6.13
2019-05-16T04:22:01.632Z,4.93
2019-05-16T04:24:32.096Z,5.53
2019-05-16T04:27:02.127Z,8.53
2019-05-16T04:29:32.028Z,5.73
2019-05-16T04:32:11.074Z,7.53
2019-05-16T04:34:46.865Z,9.47
2019-05-16T04:37:16.893Z,6.97
2019-05-16T04:39:46.061Z,5.63
2019-05-16T04:42:22.779Z,5.80
2019-05-16T04:44:51.916Z,5.07
2019-05-16T04:47:21.138Z,3.77
2019-05-16T04:49:56.903Z,5.27
2019-05-16T04:52:25.802Z,5.50
2019-05-16T04:54:55.468Z,8.87
2019-05-16T04:57:31.265Z,8.10
2019-05-16T05:00:02.166Z,8.20
2019-05-16T05:02:30.960Z,5.70
2019-05-16T05:05:01.333Z,8.30
2019-05-16T05:07:31.227Z,6.40
2019-05-16T05:10:01.030Z,8.07
2019-05-16T05:12:31.406Z,9.33
2019-05-16T05:15:01.590Z,6.23
2019-05-16T05:22:46.259Z,8.33
2019-05-16T05:25:15.930Z,9.67
2019-05-16T05:27:52.971Z,7.70
2019-05-16T05:30:21.869Z,10.33
2019-05-16T05:32:50.898Z,7.60
2019-05-16T05:35:20.869Z,5.73
2019-05-16T05:37:50.888Z,8.73
2019-05-16T05:40:20.186Z,5.33
2019-05-16T05:42:51.834Z,8.37
2019-05-16T05:45:30.511Z,8.33
2019-05-16T05:48:00.155Z,12.50
2019-05-16T05:50:30.721Z,8.97
2019-05-16T05:53:10.221Z,8.60
2019-05-16T05:55:40.479Z,9.07
2019-05-16T05:58:10.221Z,14.53
2019-05-16T06:00:46.931Z,9.83
2019-05-16T06:03:23.476Z,8.90
2019-05-16T06:05:57.291Z,7.40
2019-05-16T06:08:26.647Z,12.00
2019-05-16T06:10:56.225Z,12.53
2019-05-16T06:13:25.817Z,11.77
2019-05-16T06:15:55.669Z,9.33
2019-05-16T06:18:39.574Z,6.20
2019-05-16T06:21:08.042Z,6.50
2019-05-16T06:23:40.124Z,7.90
2019-05-16T06:26:11.855Z,5.50
2019-05-16T06:28:41.318Z,11.07
2019-05-16T06:31:14.030Z,6.77
2019-05-16T06:33:42.566Z,10.50
2019-05-16T06:36:12.169Z,6.50
2019-05-16T06:38:49.788Z,5.57
2019-05-16T06:41:19.883Z,6.37
2019-05-16T06:43:50.756Z,7.47
2019-05-16T06:46:20.243Z,5.67
2019-05-16T06:48:50.651Z,6.93
2019-05-16T06:51:20.370Z,10.20
2019-05-16T06:53:50.220Z,7.27
2019-05-16T06:56:30.841Z,7.23
2019-05-16T06:59:00.871Z,8.13
2019-05-16T07:01:29.850Z,9.83
2019-05-16T07:04:00.129Z,7.33
2019-05-16T07:06:50.304Z,5.87
2019-05-16T07:09:01.107Z,5.67
2019-05-16T07:11:31.117Z,6.53
2019-05-16T07:14:02.948Z,4.40
2019-05-16T07:16:32.585Z,8.00
2019-05-16T07:19:02.270Z,9.80
2019-05-16T07:21:31.852Z,8.93
2019-05-16T07:24:00.789Z,7.45
2019-05-16T07:26:31.013Z,7.23
2019-05-16T07:29:02.391Z,9.18
2019-05-16T07:31:31.312Z,6.53
2019-05-16T07:34:01.969Z,7.80
2019-05-16T07:36:31.863Z,6.60
2019-05-16T07:39:01.953Z,7.30
2019-05-16T07:41:31.151Z,4.03
2019-05-16T07:44:01.103Z,5.70
2019-05-16T07:46:31.546Z,4.43
2019-05-16T07:49:01.153Z,5.30
2019-05-16T07:51:31.409Z,4.00
2019-05-16T07:54:00.312Z,5.47
2019-05-16T07:56:31.010Z,3.50
2019-05-16T07:59:00.864Z,7.87
2019-05-16T08:01:33.073Z,4.17
2019-05-16T08:04:02.028Z,4.00
2019-05-16T08:06:34.146Z,6.07
2019-05-16T08:09:07.549Z,3.83
2019-05-16T08:11:35.482Z,5.57
2019-05-16T08:14:05.088Z,6.23
2019-05-16T08:16:34.458Z,4.13
2019-05-16T08:19:03.455Z,5.17
2019-05-16T08:21:32.393Z,5.30
2019-05-16T08:26:44.306Z,3.83
2019-05-16T08:29:13.609Z,3.57
2019-05-16T08:31:43.813Z,3.40
2019-05-16T08:34:13.418Z,3.10
2019-05-16T08:36:42.990Z,5.33
2019-05-16T08:39:11.921Z,4.83
2019-05-16T08:41:51.889Z,3.90
2019-05-16T08:44:21.494Z,3.47
2019-05-16T08:46:57.105Z,4.53
2019-05-16T08:49:22.413Z,5.60
2019-05-16T08:51:53.108Z,8.63
2019-05-16T08:54:23.424Z,6.90
2019-05-16T08:56:53.015Z,5.67
2019-05-16T08:59:22.636Z,5.60
2019-05-16T09:01:57.951Z,6.37
2019-05-16T09:04:24.941Z,9.77
2019-05-16T09:09:41.648Z,3.43
2019-05-16T09:12:04.235Z,5.80
2019-05-16T09:14:36.317Z,6.00
2019-05-16T09:17:08.567Z,4.80
2019-05-16T09:19:37.951Z,8.23
2019-05-16T09:22:07.526Z,3.73
2019-05-16T09:24:37.733Z,3.83
2019-05-16T09:27:12.035Z,4.10
2019-05-16T09:29:39.230Z,3.40
2019-05-16T09:32:16.650Z,3.53
2019-05-16T09:34:48.037Z,4.80
2019-05-16T09:37:19.744Z,2.57
2019-05-16T09:39:49.319Z,4.23
2019-05-16T09:42:18.997Z,4.23
2019-05-16T09:44:48.351Z,3.93
2019-05-16T09:47:18.604Z,3.73
2019-05-16T09:49:47.749Z,7.07
2019-05-16T09:52:27.180Z,2.70
2019-05-16T09:54:57.783Z,3.93
2019-05-16T09:57:27.989Z,5.17
2019-05-16T09:59:57.616Z,3.20
2019-05-16T10:02:27.466Z,3.23
2019-05-16T10:04:58.136Z,5.30
2019-05-16T10:07:28.422Z,4.17
2019-05-16T10:09:57.536Z,4.83
2019-05-16T10:12:27.146Z,3.73
2019-05-16T10:14:59.126Z,4.30
2019-05-16T10:17:27.338Z,3.30
2019-05-16T10:20:11.414Z,3.30
2019-05-16T10:22:41.296Z,5.30
2019-05-16T10:25:10.509Z,2.93
2019-05-16T10:27:39.450Z,2.87
2019-05-16T10:30:10.335Z,4.10
2019-05-16T10:32:40.024Z,3.30
2019-05-16T10:35:09.845Z,4.03
2019-05-16T10:37:39.431Z,5.57
2019-05-16T10:40:08.535Z,5.37
2019-05-16T10:42:38.565Z,5.07
2019-05-16T10:45:09.032Z,5.30
2019-05-16T10:47:37.983Z,3.43
2019-05-16T10:50:09.562Z,4.97
2019-05-16T10:52:48.988Z,3.60
2019-05-16T10:55:24.503Z,6.03
2019-05-16T10:57:48.838Z,4.37
2019-05-16T11:00:39.936Z,5.53
2019-05-16T11:02:49.114Z,4.53
2019-05-16T11:05:30.051Z,6.70
2019-05-16T11:07:53.087Z,8.20
2019-05-16T11:10:21.462Z,7.13
2019-05-16T11:12:55.356Z,7.07
2019-05-16T11:15:22.306Z,5.03
2019-05-16T11:17:52.891Z,5.67
2019-05-16T11:20:32.527Z,4.50
2019-05-16T11:22:56.954Z,6.30
2019-05-16T11:25:31.774Z,8.10
2019-05-16T11:27:57.546Z,5.13
2019-05-16T11:30:28.177Z,4.47
2019-05-16T11:33:07.600Z,6.23
2019-05-16T11:35:38.075Z,5.17
2019-05-16T11:38:08.198Z,5.30
2019-05-16T11:40:37.923Z,6.37
2019-05-16T11:43:17.411Z,4.40
2019-05-16T11:45:38.277Z,11.07
2019-05-16T11:48:32.008Z,7.40
2019-05-16T11:51:01.743Z,7.03
2019-05-16T11:53:31.854Z,8.73
2019-05-16T11:56:02.232Z,11.00
2019-05-16T11:58:32.103Z,7.27
2019-05-16T12:01:01.835Z,6.80
2019-05-16T12:03:31.824Z,8.07
2019-05-16T12:06:01.453Z,7.77
2019-05-16T12:08:31.078Z,7.80
2019-05-16T12:11:00.666Z,7.67
2019-05-16T12:13:32.911Z,7.13
2019-05-16T12:16:02.073Z,8.90
2019-05-16T12:18:31.942Z,10.13
2019-05-16T12:21:01.570Z,8.50
2019-05-16T12:23:30.627Z,8.70
2019-05-16T12:26:00.239Z,5.57
2019-05-16T12:28:29.936Z,7.23
2019-05-16T12:31:09.865Z,6.47
2019-05-16T12:33:38.775Z,6.87
2019-05-16T12:36:17.581Z,6.10
2019-05-16T12:38:47.576Z,7.40
2019-05-16T12:41:16.497Z,8.23
2019-05-16T12:43:52.376Z,9.63
2019-05-16T12:46:16.134Z,7.80
2019-05-16T12:48:47.435Z,7.53
2019-05-16T12:51:17.563Z,9.87
2019-05-16T12:53:47.754Z,6.60
2019-05-16T12:56:22.533Z,6.43
2019-05-16T12:58:50.886Z,7.03
2019-05-16T13:01:21.962Z,5.87
2019-05-16T13:03:53.222Z,7.50
2019-05-16T13:06:22.172Z,7.47
2019-05-16T13:08:58.555Z,9.33
2019-05-16T13:11:28.181Z,10.93
2019-05-16T13:14:05.795Z,10.23
2019-05-16T13:16:28.769Z,6.60
2019-05-16T13:18:58.329Z,16.00
2019-05-16T13:21:28.295Z,8.53
2019-05-16T13:23:58.119Z,8.23
2019-05-16T13:26:27.774Z,7.40
2019-05-16T13:29:02.183Z,7.57
2019-05-16T13:31:38.378Z,8.77
2019-05-16T13:34:08.255Z,6.17
2019-05-16T13:36:38.992Z,7.83
2019-05-16T13:39:19.175Z,7.90
2019-05-16T13:41:48.236Z,6.50
2019-05-16T13:44:22.844Z,7.00
2019-05-16T13:46:49.178Z,5.77
2019-05-16T13:49:22.277Z,8.40
2019-05-16T13:51:52.648Z,7.50
2019-05-16T13:54:21.687Z,7.60
2019-05-16T13:56:51.721Z,14.23
2019-05-16T13:59:20.785Z,7.53
2019-05-16T14:01:50.093Z,9.30
2019-05-16T14:04:19.694Z,8.53
2019-05-16T14:06:48.609Z,7.40
2019-05-16T14:09:18.564Z,7.97
2019-05-16T14:11:47.468Z,7.20
2019-05-16T14:14:32.110Z,6.07
2019-05-16T14:16:47.938Z,8.30
2019-05-16T14:19:18.059Z,9.67
2019-05-16T14:21:48.491Z,7.87
2019-05-16T14:24:18.180Z,7.93
2019-05-16T14:26:47.180Z,7.43
2019-05-16T14:29:17.769Z,9.17
2019-05-16T14:31:47.087Z,11.33
2019-05-16T14:34:22.427Z,9.27
2019-05-16T14:36:58.083Z,8.73
2019-05-16T14:39:28.335Z,7.97
2019-05-16T14:41:58.297Z,7.53
2019-05-16T14:44:28.596Z,9.00
2019-05-16T14:46:58.674Z,10.63
2019-05-16T14:49:28.870Z,9.50
2019-05-16T14:52:03.749Z,8.97
2019-05-16T14:54:33.347Z,6.87
2019-05-16T14:57:03.093Z,6.47
2019-05-16T14:59:32.659Z,9.03
2019-05-16T15:02:10.961Z,9.03
2019-05-16T15:04:39.874Z,7.90
2019-05-16T15:07:09.455Z,9.27
2019-05-16T15:09:38.387Z,12.67
2019-05-16T15:12:08.059Z,11.13
2019-05-16T15:14:37.649Z,9.93
2019-05-16T15:17:07.268Z,9.47
2019-05-16T15:19:36.463Z,11.60
2019-05-16T15:22:07.953Z,11.93
2019-05-16T15:24:37.211Z,12.27
2019-05-16T15:27:17.014Z,10.40
2019-05-16T15:29:50.658Z,8.90
2019-05-16T15:32:18.846Z,11.50
2019-05-16T15:34:48.074Z,9.60
2019-05-16T15:37:24.199Z,13.97
2019-05-16T15:39:54.272Z,18.67
2019-05-16T15:42:23.342Z,10.07
2019-05-16T15:44:52.250Z,11.63
2019-05-16T15:50:01.309Z,10.30
2019-05-16T15:52:33.739Z,10.80
2019-05-16T15:55:03.153Z,9.70
2019-05-16T15:57:32.339Z,14.80
2019-05-16T16:00:03.282Z,15.00
2019-05-16T16:02:32.804Z,8.00
2019-05-16T16:05:07.697Z,9.90
2019-05-16T16:07:38.006Z,24.90
2019-05-16T16:10:08.724Z,12.30
2019-05-16T16:12:38.621Z,8.67
2019-05-16T16:15:13.935Z,14.87
2019-05-16T16:17:42.837Z,9.50
2019-05-16T16:20:12.037Z,8.63
2019-05-16T16:22:41.609Z,8.23
2019-05-16T16:25:12.276Z,33.57
2019-05-16T16:27:41.193Z,31.33
2019-05-16T16:30:18.698Z,11.70
2019-05-16T16:32:48.416Z,10.93
2019-05-16T16:35:17.985Z,8.10
2019-05-16T16:37:47.315Z,8.03
2019-05-16T16:40:17.617Z,11.43
2019-05-16T16:42:47.435Z,7.83
2019-05-16T16:45:16.893Z,9.93
2019-05-16T16:47:47.097Z,7.47
2019-05-16T16:50:17.134Z,6.87
2019-05-16T16:52:47.559Z,6.73
2019-05-16T16:55:19.229Z,10.37
2019-05-16T16:57:48.200Z,9.13
2019-05-16T17:00:19.334Z,9.20
2019-05-16T17:03:02.221Z,6.37
2019-05-16T17:05:20.507Z,5.43
2019-05-16T17:07:49.413Z,6.00
2019-05-16T17:10:20.475Z,5.90
2019-05-16T17:12:49.377Z,4.80
2019-05-16T17:15:19.474Z,6.77
2019-05-16T17:17:48.450Z,4.80
2019-05-16T17:20:18.723Z,4.33
2019-05-16T17:22:57.217Z,6.73
2019-05-16T17:25:26.915Z,4.83
2019-05-16T17:27:57.285Z,11.97
2019-05-16T17:30:28.682Z,5.47
2019-05-16T17:32:58.386Z,6.60
2019-05-16T17:35:28.286Z,8.07
2019-05-16T17:38:07.113Z,7.33
2019-05-16T17:40:37.953Z,6.63
2019-05-16T17:43:07.693Z,5.53
2019-05-16T17:45:37.921Z,9.07
2019-05-16T17:48:07.266Z,10.27
2019-05-16T17:50:37.388Z,8.53
2019-05-16T17:53:07.483Z,8.63
2019-05-16T17:55:37.210Z,9.70
2019-05-16T17:58:08.793Z,8.63
2019-05-16T18:00:37.359Z,8.23
2019-05-16T18:03:06.804Z,6.67
2019-05-16T18:05:47.500Z,6.60
2019-05-16T18:08:18.187Z,10.37
2019-05-16T18:10:47.580Z,9.93
2019-05-16T18:13:18.653Z,8.50
2019-05-16T18:15:56.762Z,8.43
2019-05-16T18:18:26.874Z,7.50
2019-05-16T18:21:02.010Z,9.03
2019-05-16T18:23:30.161Z,10.13
2019-05-16T18:26:01.903Z,10.77
2019-05-16T18:28:30.731Z,7.40
2019-05-16T18:31:03.857Z,8.00
2019-05-16T18:33:32.857Z,10.07
2019-05-16T18:36:02.614Z,8.23
2019-05-16T18:38:40.129Z,8.63
2019-05-16T18:41:09.478Z,14.77
2019-05-16T18:43:39.064Z,8.70
2019-05-16T18:46:08.656Z,9.30
2019-05-16T18:48:37.571Z,7.87
2019-05-16T18:51:07.637Z,9.03
2019-05-16T18:53:37.576Z,9.73
2019-05-16T18:56:07.767Z,8.33
2019-05-16T18:58:38.388Z,7.43
2019-05-16T19:01:07.299Z,10.30
2019-05-16T19:03:36.623Z,8.47
2019-05-16T19:06:07.772Z,10.23
2019-05-16T19:08:36.566Z,8.67
2019-05-16T19:11:07.479Z,12.53
2019-05-16T19:13:36.873Z,9.00
2019-05-16T19:16:06.550Z,10.83
2019-05-16T19:18:36.865Z,8.27
2019-05-16T19:21:07.539Z,10.20
2019-05-16T19:23:37.697Z,10.80
2019-05-16T19:26:07.314Z,11.10
2019-05-16T19:28:37.323Z,8.83
2019-05-16T19:31:07.941Z,10.40
2019-05-16T19:33:36.920Z,8.17
2019-05-16T19:36:13.690Z,8.33
2019-05-16T19:38:42.599Z,8.07
2019-05-16T19:41:12.282Z,8.67
2019-05-16T19:43:41.874Z,7.80
2019-05-16T19:46:11.774Z,8.43
2019-05-16T19:48:41.390Z,8.07
2019-05-16T19:51:10.296Z,10.23
2019-05-16T19:53:40.386Z,6.60
2019-05-16T19:56:09.301Z,9.63
2019-05-16T19:58:39.003Z,6.20
2019-05-16T20:01:09.302Z,8.97
2019-05-16T20:03:38.275Z,8.03
2019-05-16T20:06:08.216Z,6.67
2019-05-16T20:08:37.479Z,8.83
2019-05-16T20:11:07.917Z,8.30
2019-05-16T20:13:47.254Z,8.90
2019-05-16T20:16:20.362Z,7.83
2019-05-16T20:18:50.002Z,9.73
2019-05-16T20:21:20.092Z,6.97
2019-05-16T20:23:49.211Z,8.57
2019-05-16T20:26:20.140Z,7.50
2019-05-16T20:28:49.054Z,8.93
2019-05-16T20:31:18.079Z,11.80
2019-05-16T20:33:47.786Z,9.63
2019-05-16T20:36:17.458Z,11.63
2019-05-16T20:38:46.807Z,11.53
2019-05-16T20:41:22.956Z,12.20
2019-05-16T20:43:50.579Z,10.87
2019-05-16T20:46:19.589Z,13.60
2019-05-16T20:48:49.183Z,13.57
2019-05-16T20:51:20.225Z,12.20
2019-05-16T20:53:49.753Z,13.17
2019-05-16T20:56:19.488Z,11.43
2019-05-16T20:58:49.184Z,12.27
2019-05-16T21:01:19.162Z,15.27
2019-05-16T21:03:48.770Z,14.83
2019-05-16T21:06:27.314Z,12.50
2019-05-16T21:08:57.458Z,11.93
2019-05-16T21:11:27.204Z,14.47
2019-05-16T21:13:56.672Z,13.00
2019-05-16T21:16:28.521Z,13.43
2019-05-16T21:18:58.086Z,12.77
2019-05-16T21:21:27.538Z,12.57
2019-05-16T21:23:56.518Z,11.87
2019-05-16T21:26:26.326Z,13.50
2019-05-16T21:28:56.995Z,12.03
2019-05-16T21:31:27.488Z,14.90
2019-05-16T21:33:57.436Z,12.87
2019-05-16T21:36:27.394Z,14.57
2019-05-16T21:39:02.584Z,13.83
2019-05-16T21:41:27.923Z,18.77
2019-05-16T21:43:56.941Z,17.50
2019-05-16T21:46:27.171Z,15.97
2019-05-16T21:48:57.911Z,17.43
2019-05-16T21:51:27.609Z,18.37
2019-05-16T21:53:56.503Z,16.70
2019-05-16T21:56:26.603Z,15.83
2019-05-16T21:59:03.864Z,16.93
2019-05-16T22:01:33.544Z,15.57
2019-05-16T22:04:03.113Z,16.63
2019-05-16T22:06:33.098Z,18.23
2019-05-16T22:09:02.012Z,20.47
2019-05-16T22:11:31.571Z,21.70
2019-05-16T22:14:01.240Z,23.50
2019-05-16T22:16:37.053Z,24.40
2019-05-16T22:19:07.124Z,25.87
2019-05-16T22:21:42.311Z,23.80
2019-05-16T22:24:18.301Z,32.97
2019-05-16T22:26:47.201Z,30.50
2019-05-16T22:29:17.041Z,33.63
2019-05-16T22:31:47.104Z,33.87
2019-05-16T22:34:17.881Z,35.00
2019-05-16T22:36:49.323Z,33.03
2019-05-16T22:39:18.455Z,37.13
2019-05-16T22:41:47.363Z,34.97
2019-05-16T22:44:20.145Z,32.57
2019-05-16T22:46:50.467Z,30.20
2019-05-16T22:49:19.345Z,31.30
2019-05-16T22:51:48.900Z,32.10
2019-05-16T22:54:18.854Z,31.10
2019-05-16T22:56:48.690Z,35.53
2019-05-16T22:59:18.262Z,43.57
2019-05-16T23:01:48.303Z,34.60
2019-05-16T23:04:23.853Z,37.03
2019-05-16T23:06:53.533Z,39.03
2019-05-16T23:09:23.151Z,35.37
2019-05-16T23:11:52.715Z,44.80
2019-05-16T23:14:21.711Z,37.73
2019-05-16T23:16:50.626Z,44.17
2019-05-16T23:19:20.196Z,39.80
2019-05-16T23:21:49.855Z,37.20
2019-05-16T23:24:19.410Z,42.77
2019-05-16T23:26:48.724Z,36.20
2019-05-16T23:29:18.526Z,38.83
2019-05-16T23:31:50.788Z,41.40
2019-05-16T23:34:18.980Z,43.87
2019-05-16T23:36:47.914Z,44.60
2019-05-16T23:39:17.861Z,42.10
2019-05-16T23:41:47.546Z,43.57
2019-05-16T23:44:16.986Z,47.23
2019-05-16T23:46:47.055Z,42.87
2019-05-16T23:49:16.872Z,46.57
2019-05-16T23:51:53.262Z,46.43
2019-05-16T23:54:22.503Z,42.00
2019-05-16T23:56:52.899Z,44.60
2019-05-16T23:59:22.131Z,49.80
